Time;durP1;ratioP1;P1;durP2;ratioP2;P2;SDS_P1;SDS_P2;PMS_P1;PMS_P2;Temp;Humidity;BMP_temperature;BMP_pressure;BME280_temperature;BME280_humidity;BME280_pressure;Samples;Min_cycle;Max_cycle;Signal;HPM_P1;HPM_P2
2023/05/02 00:04:18;;;;;;;20.40;9.60;;;;;;;11.90;55.18;99042.14;221113;181;137234;-66
2023/05/02 00:09:22;;;;;;;18.20;9.60;;;;;;;11.86;55.52;99037.61;221216;181;146187;-66
2023/05/02 00:14:25;;;;;;;16.30;9.20;;;;;;;11.83;55.55;99033.66;221018;181;138564;-65
2023/05/02 00:19:30;;;;;;;15.30;8.40;;;;;;;11.79;55.74;99028.38;221140;181;137267;-68
2023/05/02 00:24:33;;;;;;;19.00;9.00;;;;;;;11.73;56.02;99030.77;221024;181;146557;-68
2023/05/02 00:29:36;;;;;;;18.30;9.40;;;;;;;11.67;56.01;99031.91;221152;181;139310;-68
2023/05/02 00:34:40;;;;;;;17.50;8.40;;;;;;;11.60;56.27;99031.62;221121;181;137873;-70
2023/05/02 00:40:06;;;;;;;16.10;8.50;;;;;;;11.57;56.53;99034.48;219452;193;675516;-67
2023/05/02 00:45:11;;;;;;;15.20;8.60;;;;;;;11.51;56.63;99040.95;220510;188;137007;-68
2023/05/02 00:50:16;;;;;;;15.90;8.60;;;;;;;11.45;56.65;99041.84;220891;185;144079;-65
2023/05/02 00:55:19;;;;;;;16.80;8.80;;;;;;;11.42;56.89;99040.81;220970;184;142952;-68
2023/05/02 01:00:30;;;;;;;12.30;7.90;;;;;;;11.36;57.08;99042.66;220854;184;136393;-65
2023/05/02 01:05:48;;;;;;;15.60;8.40;;;;;;;11.32;57.39;99041.62;220929;183;144389;-69
2023/05/02 01:11:09;;;;;;;15.50;8.70;;;;;;;11.27;57.35;99041.06;221020;182;138856;-67
2023/05/02 01:19:56;;;;;;;18.20;9.20;;;;;;;11.32;57.46;99043.45;220112;189;679570;-66
2023/05/02 01:25:19;;;;;;;16.10;8.50;;;;;;;11.29;57.34;99043.98;220853;185;136934;-65
2023/05/02 01:30:26;;;;;;;14.70;9.00;;;;;;;11.22;57.52;99046.19;220891;185;144187;-66
2023/05/02 01:35:34;;;;;;;16.70;8.90;;;;;;;11.15;57.68;99042.60;220686;183;139093;-68
2023/05/02 01:40:39;;;;;;;15.60;8.70;;;;;;;11.07;57.90;99035.95;220798;185;136808;-69
2023/05/02 01:45:44;;;;;;;15.20;8.40;;;;;;;11.03;58.14;99035.71;220885;185;144070;-66
2023/05/02 01:50:49;;;;;;;16.20;9.40;;;;;;;10.97;58.47;99030.25;220784;180;138988;-68
2023/05/02 01:55:54;;;;;;;19.10;8.90;;;;;;;10.93;58.60;99034.56;221073;181;139970;-67
2023/05/02 02:01:00;;;;;;;16.20;8.40;;;;;;;10.93;58.88;99038.68;221090;181;144289;-63
2023/05/02 02:06:05;;;;;;;15.60;8.00;;;;;;;10.89;58.60;99041.91;220997;182;138069;-67
2023/05/02 02:11:12;;;;;;;12.70;7.60;;;;;;;10.90;58.61;99044.69;220969;182;137001;-67
2023/05/02 02:16:23;;;;;;;15.20;8.10;;;;;;;10.93;59.08;99042.93;221026;182;145544;-67
2023/05/02 02:21:31;;;;;;;16.40;7.90;;;;;;;10.92;59.07;99042.29;220973;178;139112;-68
2023/05/02 02:26:36;;;;;;;14.90;7.80;;;;;;;10.87;59.04;99054.11;221015;182;137394;-69
2023/05/02 02:31:39;;;;;;;15.70;7.80;;;;;;;10.82;59.18;99062.77;220892;182;147274;-67
2023/05/02 02:36:49;;;;;;;16.30;7.80;;;;;;;10.75;58.99;99061.47;220874;182;139570;-69
2023/05/02 02:42:07;;;;;;;15.50;8.00;;;;;;;10.70;59.31;99057.86;220869;183;137912;-67
2023/05/02 02:47:41;;;;;;;15.90;7.90;;;;;;;10.64;59.44;99056.79;220993;182;147604;-66
2023/05/02 02:52:58;;;;;;;16.20;7.90;;;;;;;10.57;59.57;99057.75;220867;182;138579;-66
2023/05/02 02:58:16;;;;;;;16.40;7.60;;;;;;;10.47;59.91;99066.22;220935;182;137792;-64
2023/05/02 03:03:27;;;;;;;16.00;8.10;;;;;;;10.44;60.17;99066.34;220955;182;146013;-66
2023/05/02 03:08:49;;;;;;;17.00;8.00;;;;;;;10.38;60.47;99067.77;220911;182;139481;-68
2023/05/02 03:13:53;;;;;;;14.60;8.10;;;;;;;10.31;60.42;99074.81;220934;182;136600;-68
2023/05/02 03:18:57;;;;;;;16.90;7.60;;;;;;;10.27;60.79;99072.05;220843;181;146919;-66
2023/05/02 03:24:02;;;;;;;20.40;8.80;;;;;;;10.24;60.95;99065.45;220989;183;138798;-67
2023/05/02 03:29:06;;;;;;;20.20;8.70;;;;;;;10.19;60.99;99069.64;220977;182;137005;-65
2023/05/02 03:34:11;;;;;;;19.40;8.70;;;;;;;10.17;61.12;99082.84;220920;182;146120;-68
2023/05/02 03:39:16;;;;;;;18.30;8.40;;;;;;;10.12;61.03;99081.36;220942;182;138715;-66
2023/05/02 03:44:19;;;;;;;20.60;8.30;;;;;;;10.12;61.18;99085.13;221050;182;139255;-66
2023/05/02 03:49:23;;;;;;;17.80;8.80;;;;;;;10.16;61.24;99085.95;221140;182;146029;-68
2023/05/02 03:54:26;;;;;;;18.10;8.40;;;;;;;10.17;61.11;99085.64;221021;182;139345;-66
2023/05/02 03:59:34;;;;;;;16.80;8.40;;;;;;;10.19;61.33;99086.09;221067;182;136830;-68
2023/05/02 04:04:42;;;;;;;15.00;8.60;;;;;;;10.21;61.49;99082.98;220898;182;146208;-67
2023/05/02 04:09:49;;;;;;;17.60;7.60;;;;;;;10.27;61.91;99088.54;220984;183;139341;-66
2023/05/02 04:14:52;;;;;;;17.40;8.70;;;;;;;10.28;61.86;99088.97;220961;181;140946;-67
2023/05/02 04:19:59;;;;;;;22.10;8.70;;;;;;;10.29;61.99;99091.55;220933;182;145556;-68
2023/05/02 04:25:08;;;;;;;17.00;8.90;;;;;;;10.35;62.24;99087.83;221053;182;139266;-66
2023/05/02 04:30:14;;;;;;;18.30;9.20;;;;;;;10.43;62.18;99085.77;221070;182;136802;-67
2023/05/02 04:35:21;;;;;;;18.60;8.90;;;;;;;10.47;61.99;99083.58;221028;182;146005;-68
2023/05/02 04:40:25;;;;;;;19.40;9.60;;;;;;;10.48;61.92;99080.84;220933;181;138884;-65
2023/05/02 04:45:35;;;;;;;15.70;9.10;;;;;;;10.59;62.02;99076.24;221028;182;137208;-69
2023/05/02 04:50:45;;;;;;;16.90;9.30;;;;;;;10.69;62.05;99075.14;221014;182;145991;-67
2023/05/02 04:55:49;;;;;;;19.70;9.60;;;;;;;10.80;62.18;99079.42;220951;182;138847;-67
2023/05/02 05:00:53;;;;;;;17.60;9.70;;;;;;;10.93;61.58;99083.02;220891;182;136844;-68
2023/05/02 05:05:56;;;;;;;16.80;9.20;;;;;;;11.07;61.28;99081.27;220970;182;145680;-67
2023/05/02 05:11:00;;;;;;;20.60;9.20;;;;;;;11.22;61.25;99075.52;220939;182;138836;-64
2023/05/02 05:16:05;;;;;;;17.70;8.40;;;;;;;11.39;61.00;99073.68;220911;182;136812;-64
2023/05/02 05:21:10;;;;;;;14.80;8.90;;;;;;;11.64;60.76;99088.04;220759;181;145881;-68
2023/05/02 05:26:15;;;;;;;18.80;8.60;;;;;;;11.93;59.26;99084.89;220890;182;139475;-67
2023/05/02 05:31:23;;;;;;;16.40;8.10;;;;;;;12.22;58.28;99082.10;220962;182;138305;-67
2023/05/02 05:36:30;;;;;;;15.20;8.00;;;;;;;12.48;57.48;99077.45;221022;181;145702;-67
2023/05/02 05:41:34;;;;;;;18.10;7.80;;;;;;;12.73;56.21;99076.75;220960;182;139355;-67
2023/05/02 05:46:41;;;;;;;11.30;6.10;;;;;;;12.95;55.54;99078.42;220897;181;137781;-67
2023/05/02 05:51:46;;;;;;;8.70;4.90;;;;;;;13.20;53.27;99076.10;221004;183;146227;-67
2023/05/02 05:56:51;;;;;;;9.90;4.30;;;;;;;13.53;51.23;99073.39;221025;181;140155;-68
2023/05/02 06:01:56;;;;;;;7.60;4.00;;;;;;;13.83;51.14;99070.77;220916;181;137285;-66
2023/05/02 06:07:00;;;;;;;7.50;3.20;;;;;;;14.11;48.75;99070.23;220963;182;146160;-67
2023/05/02 06:12:05;;;;;;;7.90;3.40;;;;;;;14.40;47.19;99075.20;220975;181;139289;-65
2023/05/02 06:17:09;;;;;;;5.30;3.10;;;;;;;14.68;45.99;99072.55;221052;181;137648;-66
2023/05/02 06:22:13;;;;;;;9.30;3.20;;;;;;;14.94;44.97;99075.45;221050;178;147047;-67
2023/05/02 06:27:16;;;;;;;4.70;2.60;;;;;;;15.20;44.43;99074.45;220958;182;138922;-67
2023/05/02 06:32:20;;;;;;;4.20;3.10;;;;;;;15.44;44.03;99077.71;221081;182;136596;-69
2023/05/02 06:37:23;;;;;;;6.50;3.30;;;;;;;15.63;44.32;99075.40;220961;182;146005;-66
2023/05/02 06:42:26;;;;;;;8.30;3.60;;;;;;;15.85;44.76;99074.17;220972;182;139626;-67
2023/05/02 06:47:30;;;;;;;6.20;2.90;;;;;;;16.11;44.12;99075.98;221058;182;137364;-68
2023/05/02 06:52:34;;;;;;;8.40;3.30;;;;;;;16.35;43.85;99076.05;221054;182;146024;-66
2023/05/02 06:57:37;;;;;;;8.30;3.20;;;;;;;16.59;43.96;99082.39;221022;181;139207;-68
2023/05/02 07:02:40;;;;;;;6.90;4.00;;;;;;;16.78;43.42;99084.16;221017;181;136635;-71
2023/05/02 07:07:44;;;;;;;7.50;3.30;;;;;;;16.94;43.40;99080.42;221083;182;146150;-68
2023/05/02 07:12:47;;;;;;;8.60;3.40;;;;;;;17.10;42.96;99085.15;221084;182;140037;-68
2023/05/02 07:17:50;;;;;;;6.40;3.40;;;;;;;17.26;42.71;99084.45;221147;182;136965;-68
2023/05/02 07:22:55;;;;;;;6.60;2.90;;;;;;;17.42;42.52;99087.86;221056;182;146183;-69
2023/05/02 07:27:58;;;;;;;6.70;2.30;;;;;;;17.61;41.47;99082.52;220976;182;139886;-67
2023/05/02 07:33:02;;;;;;;5.50;2.00;;;;;;;17.82;41.17;99082.65;221111;183;137134;-69
2023/05/02 07:38:05;;;;;;;27.20;22.00;;;;;;;18.02;40.28;99087.77;220951;181;145735;-66
2023/05/02 07:43:09;;;;;;;8.60;2.80;;;;;;;18.19;40.34;99090.13;220859;183;139153;-63
2023/05/02 07:48:13;;;;;;;4.40;1.90;;;;;;;18.34;41.04;99089.30;221035;181;140111;-64
2023/05/02 07:53:16;;;;;;;3.80;1.90;;;;;;;18.47;40.96;99090.66;220948;182;146531;-65
2023/05/02 07:58:19;;;;;;;5.10;2.40;;;;;;;18.59;40.87;99094.46;220988;182;139124;-65
2023/05/02 08:03:23;;;;;;;12.20;3.40;;;;;;;18.68;42.37;99090.25;220982;182;137665;-64
2023/05/02 08:08:27;;;;;;;7.80;2.00;;;;;;;18.81;43.97;99093.53;220982;181;145513;-64
2023/05/02 08:13:30;;;;;;;4.60;2.00;;;;;;;18.88;41.06;99094.70;220984;183;138777;-67
2023/05/02 08:18:33;;;;;;;8.40;4.60;;;;;;;18.82;39.45;99101.16;221006;182;137044;-67
2023/05/02 08:23:36;;;;;;;4.10;2.20;;;;;;;18.79;38.78;99111.14;221125;181;146684;-66
2023/05/02 08:28:39;;;;;;;4.10;2.30;;;;;;;18.77;38.25;99116.18;221146;181;140085;-67
2023/05/02 08:33:47;;;;;;;5.20;2.30;;;;;;;18.78;38.66;99118.09;221122;182;136705;-68
2023/05/02 08:38:50;;;;;;;3.50;2.30;;;;;;;18.79;38.72;99112.31;220924;182;146268;-68
2023/05/02 08:43:55;;;;;;;3.80;2.30;;;;;;;18.87;38.79;99111.52;220865;182;139419;-67
2023/05/02 08:49:00;;;;;;;3.10;2.10;;;;;;;19.01;39.05;99111.24;221072;182;137136;-66
2023/05/02 08:54:08;;;;;;;4.80;2.40;;;;;;;19.16;39.14;99112.46;221027;183;146288;-66
2023/05/02 08:59:11;;;;;;;4.50;2.50;;;;;;;19.19;38.87;99111.17;220966;182;139271;-68
2023/05/02 09:04:17;;;;;;;5.10;2.50;;;;;;;19.18;39.18;99114.54;221014;182;136815;-66
2023/05/02 09:09:20;;;;;;;;;;;;;;;19.21;39.45;99112.93;220953;182;146843;-66
2023/05/02 09:14:23;;;;;;;4.80;2.30;;;;;;;19.27;39.86;99110.72;221084;182;140621;-66
2023/05/02 09:19:27;;;;;;;4.60;2.40;;;;;;;19.30;39.64;99111.54;221065;181;136877;-67
2023/05/02 09:24:30;;;;;;;2.60;2.00;;;;;;;19.30;39.71;99112.36;221022;182;146160;-68
2023/05/02 09:29:34;;;;;;;4.10;2.40;;;;;;;19.31;39.94;99115.39;220935;182;138977;-65
2023/05/02 09:34:38;;;;;;;4.50;2.40;;;;;;;19.33;40.12;99121.23;221070;182;141327;-67
2023/05/02 09:40:05;;;;;;;6.30;2.40;;;;;;;19.36;40.32;99119.17;220904;181;145955;-65
2023/05/02 09:45:19;;;;;;;5.10;2.50;;;;;;;19.34;40.32;99122.81;221002;182;139365;-68
2023/05/02 09:50:36;;;;;;;4.20;2.50;;;;;;;19.30;40.10;99125.02;220968;182;137326;-69
2023/05/02 09:55:42;;;;;;;4.30;2.30;;;;;;;19.30;40.08;99128.58;221041;183;147651;-67
2023/05/02 10:00:45;;;;;;;5.50;2.40;;;;;;;19.38;39.99;99125.30;220893;181;138989;-68
2023/05/02 10:05:49;;;;;;;4.80;2.30;;;;;;;19.47;40.00;99126.90;220915;182;136877;-69
2023/05/02 10:10:55;;;;;;;4.50;2.30;;;;;;;19.60;40.03;99124.94;220957;182;148300;-68
2023/05/02 10:16:03;;;;;;;3.00;2.00;;;;;;;19.88;40.10;99120.75;223697;182;138477;-65
2023/05/02 10:25:18;;;;;;;3.50;2.00;;;;;;;20.33;39.13;99110.83;219625;193;666124;-69
2023/05/02 10:30:22;;;;;;;4.10;2.00;;;;;;;20.49;38.42;99114.80;220890;184;136292;-68
2023/05/02 10:35:26;;;;;;;6.80;2.10;;;;;;;20.63;38.10;99110.19;220798;184;144042;-68
2023/05/02 10:40:41;;;;;;;3.90;2.00;;;;;;;20.87;37.64;99107.29;220828;184;138879;-68
2023/05/02 10:45:44;;;;;;;3.00;2.10;;;;;;;21.19;37.36;99100.02;220806;185;137063;-65
2023/05/02 11:25:30;;;;;;;4.00;2.70;;;;;;;22.38;33.95;99079.61;219451;194;676750;-68
2023/05/02 11:30:36;;;;;;;4.10;2.00;;;;;;;22.52;33.55;99073.89;220851;184;135986;-68
2023/05/02 11:35:42;;;;;;;3.00;2.20;;;;;;;22.60;32.95;99071.58;220853;183;145106;-70
2023/05/02 11:40:53;;;;;;;2.70;2.00;;;;;;;22.66;33.45;99071.02;220774;184;141205;-67
2023/05/02 11:45:58;;;;;;;3.80;2.50;;;;;;;22.80;33.87;99077.79;220986;182;136403;-70
2023/05/02 11:51:05;;;;;;;;;;;;;;;22.95;33.96;99077.13;220949;182;144395;-70
2023/05/02 11:56:09;;;;;;;4.50;2.30;;;;;;;22.84;34.72;99078.24;221163;182;138645;-73
2023/05/02 12:01:14;;;;;;;2.50;2.20;;;;;;;22.77;35.12;99081.66;221062;182;137296;-72
2023/05/02 12:06:18;;;;;;;4.10;2.40;;;;;;;22.73;35.06;99079.66;221033;182;145391;-71
2023/05/02 12:11:22;;;;;;;4.90;2.60;;;;;;;22.86;35.13;99075.00;221037;182;138910;-70
2023/05/02 12:16:26;;;;;;;4.10;2.20;;;;;;;23.15;34.68;99070.96;221050;182;138028;-71
2023/05/02 12:21:32;;;;;;;4.20;2.70;;;;;;;23.27;33.08;99074.11;221000;182;145669;-69
2023/05/02 12:26:35;;;;;;;2.10;1.90;;;;;;;23.62;32.80;99068.17;220861;182;139016;-67
2023/05/02 12:31:39;;;;;;;3.40;2.00;;;;;;;23.63;32.24;99063.67;220903;182;136973;-68
2023/05/02 12:36:44;;;;;;;2.50;2.00;;;;;;;23.42;31.84;99071.30;220836;183;145753;-71
2023/05/02 12:41:52;;;;;;;;;;;;;;;23.18;31.98;99070.69;220853;182;140369;-71
2023/05/02 12:46:59;;;;;;;4.20;3.20;;;;;;;22.96;32.55;99071.52;221029;183;131182;-69
2023/05/02 12:52:03;;;;;;;3.50;2.00;;;;;;;22.71;32.58;99084.81;221051;182;145905;-70
2023/05/02 12:57:07;;;;;;;3.00;2.30;;;;;;;22.50;32.73;99093.12;220752;182;139681;-70
2023/05/02 13:02:11;;;;;;;3.10;2.30;;;;;;;22.35;33.24;99095.17;220923;182;137504;-71
2023/05/02 13:07:14;;;;;;;2.70;2.20;;;;;;;22.22;33.56;99097.98;220722;182;146487;-72
2023/05/02 13:12:17;;;;;;;6.40;2.50;;;;;;;22.10;33.68;99097.47;220960;183;139005;-71
2023/05/02 13:17:21;;;;;;;8.60;3.00;;;;;;;21.95;33.70;99107.06;220887;182;137413;-72
2023/05/02 13:22:25;;;;;;;7.00;2.50;;;;;;;21.76;34.08;99121.38;220922;182;145711;-72
2023/05/02 13:27:28;;;;;;;4.90;2.90;;;;;;;21.52;35.97;99131.69;220993;182;139335;-66
2023/05/02 13:32:31;;;;;;;3.70;2.60;;;;;;;21.28;38.50;99151.37;221011;182;137821;-72
2023/05/02 13:37:35;;;;;;;4.90;3.00;;;;;;;20.84;41.84;99156.66;221178;182;146145;-71
2023/05/02 13:42:38;;;;;;;7.30;3.10;;;;;;;20.28;45.55;99166.33;223739;183;138354;-71
2023/05/02 13:47:41;;;;;;;5.50;2.60;;;;;;;19.72;47.81;99185.85;223795;182;139261;-66
2023/05/02 13:52:44;;;;;;;8.50;3.40;;;;;;;19.30;49.46;99239.89;223731;183;145907;-66
2023/05/02 13:57:50;;;;;;;7.10;3.40;;;;;;;18.71;50.59;99244.54;223820;182;138658;-70
2023/05/02 14:02:54;;;;;;;5.50;3.30;;;;;;;18.28;52.98;99265.23;223750;183;137314;-68
2023/05/02 14:07:57;;;;;;;5.70;3.30;;;;;;;17.95;54.77;99274.43;223754;183;145631;-66
2023/05/02 14:13:00;;;;;;;4.40;3.10;;;;;;;17.66;56.47;99282.50;223697;182;141474;-65
2023/05/02 14:18:03;;;;;;;4.80;2.70;;;;;;;17.47;57.88;99283.98;223820;183;139350;-66
2023/05/02 14:23:07;;;;;;;3.40;2.60;;;;;;;17.23;58.58;99286.27;223713;182;145873;-68
2023/05/02 14:28:10;;;;;;;5.20;2.90;;;;;;;17.01;59.67;99277.20;223736;182;138427;-67
2023/05/02 14:33:14;;;;;;;5.20;2.30;;;;;;;16.94;60.00;99274.36;223741;183;137285;-66
2023/05/02 14:38:17;;;;;;;3.00;1.40;;;;;;;16.84;60.40;99267.87;223666;182;145343;-66
2023/05/02 14:43:20;;;;;;;3.70;2.00;;;;;;;16.73;61.02;99283.30;223755;182;139693;-67
2023/05/02 14:48:23;;;;;;;2.40;1.60;;;;;;;16.66;61.66;99290.54;223749;182;136680;-68
2023/05/02 14:53:26;;;;;;;3.40;1.90;;;;;;;16.58;62.04;99284.71;223720;180;145183;-68
2023/05/02 14:58:29;;;;;;;4.10;2.20;;;;;;;16.56;62.77;99275.52;223684;182;138176;-69
2023/05/02 15:03:33;;;;;;;2.30;1.70;;;;;;;16.43;63.76;99238.52;223623;183;137160;-69
2023/05/02 15:08:43;;;;;;;2.70;1.60;;;;;;;16.29;64.31;99155.84;223728;182;145252;-67
2023/05/02 15:13:46;;;;;;;2.50;1.90;;;;;;;16.12;64.10;99175.02;223798;182;138832;-67
2023/05/02 15:18:49;;;;;;;2.10;1.50;;;;;;;16.10;64.91;99175.85;223754;182;137665;-66
2023/05/02 15:23:52;;;;;;;2.00;1.60;;;;;;;16.15;65.41;99170.77;223731;182;146051;-71
2023/05/02 15:28:55;;;;;;;2.50;1.80;;;;;;;16.22;66.01;99187.21;223642;183;138223;-68
2023/05/02 15:33:59;;;;;;;3.80;2.10;;;;;;;16.33;65.36;99220.66;223649;183;138242;-67
2023/05/02 15:39:05;;;;;;;3.30;2.30;;;;;;;16.49;64.95;99251.23;223631;182;146801;-66
2023/05/02 15:44:09;;;;;;;3.50;2.50;;;;;;;16.53;65.09;99281.37;223589;183;138795;-67
2023/05/02 15:49:12;;;;;;;2.80;2.50;;;;;;;16.53;65.80;99299.30;223688;183;136689;-65
2023/05/02 15:54:16;;;;;;;4.40;2.50;;;;;;;16.49;67.03;99307.33;223616;182;145941;-65
2023/05/02 15:59:19;;;;;;;3.60;2.40;;;;;;;16.42;67.78;99310.90;223665;181;138161;-68
2023/05/02 16:04:24;;;;;;;2.50;2.30;;;;;;;16.41;67.72;99322.67;223702;182;137568;-69
2023/05/02 16:09:29;;;;;;;4.20;2.80;;;;;;;16.40;67.78;99328.80;223734;183;146952;-67
2023/05/02 16:14:33;;;;;;;4.10;2.50;;;;;;;16.41;67.90;99328.00;223728;182;138505;-68
2023/05/02 16:19:36;;;;;;;3.10;2.70;;;;;;;16.43;67.98;99326.95;223720;182;137444;-65
2023/05/02 16:24:40;;;;;;;4.90;3.20;;;;;;;16.40;68.40;99327.02;223722;182;145077;-66
2023/05/02 16:29:43;;;;;;;4.00;3.40;;;;;;;16.42;68.11;99334.05;223599;182;140304;-65
2023/05/02 16:34:46;;;;;;;5.00;3.20;;;;;;;16.40;68.32;99342.29;223735;183;137369;-66
2023/05/02 16:39:49;;;;;;;4.90;2.90;;;;;;;16.36;68.93;99352.45;223669;182;146015;-66
2023/05/02 16:44:52;;;;;;;5.70;3.40;;;;;;;16.31;68.80;99367.13;223632;182;139417;-66
2023/05/02 16:49:57;;;;;;;6.40;3.20;;;;;;;16.33;68.75;99378.09;223676;182;137237;-66
2023/05/02 16:55:00;;;;;;;4.70;3.50;;;;;;;16.37;68.54;99395.73;223641;183;146785;-67
2023/05/02 17:00:04;;;;;;;4.30;2.90;;;;;;;16.43;68.22;99418.30;223693;182;137985;-66
2023/05/02 17:05:09;;;;;;;5.60;3.30;;;;;;;16.44;67.94;99431.83;223895;182;136819;-67
2023/05/02 17:10:12;;;;;;;6.10;3.70;;;;;;;16.42;68.43;99447.90;223788;182;146632;-65
2023/05/02 17:15:15;;;;;;;5.70;3.70;;;;;;;16.37;68.37;99453.01;223678;182;137733;-65
2023/05/02 17:20:19;;;;;;;6.30;4.10;;;;;;;16.39;68.53;99458.02;223754;182;137071;-67
2023/05/02 17:25:26;;;;;;;4.90;3.70;;;;;;;16.39;68.19;99455.73;223736;182;145462;-67
2023/05/02 17:30:32;;;;;;;6.30;3.80;;;;;;;16.38;68.05;99457.23;223830;183;138220;-65
2023/05/02 17:35:35;;;;;;;5.50;4.10;;;;;;;16.37;67.94;99465.55;223815;182;137157;-66
2023/05/02 17:40:39;;;;;;;7.50;4.70;;;;;;;16.32;68.18;99467.90;223783;182;146750;-65
2023/05/02 17:45:43;;;;;;;8.00;4.50;;;;;;;16.22;68.56;99473.86;223746;182;138820;-66
2023/05/02 17:50:48;;;;;;;6.00;4.70;;;;;;;16.23;68.97;99479.68;223827;182;140229;-64
2023/05/02 17:55:51;;;;;;;7.40;5.50;;;;;;;16.29;69.13;99478.85;223793;182;144952;-64
2023/05/02 18:00:55;;;;;;;7.60;5.60;;;;;;;16.30;69.30;99486.63;223743;182;138916;-63
2023/05/02 18:05:58;;;;;;;7.00;5.50;;;;;;;16.34;69.25;99492.27;223784;182;137044;-65
2023/05/02 18:11:02;;;;;;;9.20;6.50;;;;;;;16.29;69.44;99496.95;223823;183;145153;-63
2023/05/02 18:16:05;;;;;;;8.30;5.90;;;;;;;16.26;69.65;99503.95;223821;182;138240;-63
2023/05/02 18:21:09;;;;;;;9.60;6.10;;;;;;;16.19;69.97;99509.73;223790;182;137668;-65
2023/05/02 18:26:12;;;;;;;8.40;5.80;;;;;;;16.17;69.82;99506.99;223788;182;145201;-66
2023/05/02 18:31:16;;;;;;;7.40;5.60;;;;;;;16.19;69.79;99504.37;223645;182;138417;-62
2023/05/02 18:36:24;;;;;;;7.40;6.50;;;;;;;16.10;69.39;99496.47;223845;183;137247;-64
2023/05/02 18:41:28;;;;;;;10.80;7.40;;;;;;;16.02;69.28;99489.88;223693;182;146065;-65
2023/05/02 18:46:31;;;;;;;8.80;5.70;;;;;;;16.00;69.46;99479.30;223754;182;138623;-63
2023/05/02 18:51:34;;;;;;;6.90;5.50;;;;;;;15.99;69.34;99476.21;223807;182;136875;-61
2023/05/02 18:56:37;;;;;;;7.90;5.70;;;;;;;15.99;69.49;99465.46;223753;182;145285;-65
2023/05/02 19:01:40;;;;;;;9.80;7.30;;;;;;;16.02;69.60;99445.00;223633;183;138401;-63
2023/05/02 19:06:43;;;;;;;10.40;8.10;;;;;;;15.94;70.08;99426.29;223661;182;140282;-62
2023/05/02 19:11:47;;;;;;;8.30;6.50;;;;;;;15.86;70.12;99425.48;223756;182;145741;-64
2023/05/02 19:16:50;;;;;;;7.50;5.70;;;;;;;15.76;70.06;99438.98;223641;183;140115;-67
2023/05/02 19:21:53;;;;;;;6.30;4.70;;;;;;;15.70;70.07;99456.44;223702;183;137969;-65
2023/05/02 19:26:56;;;;;;;5.40;3.90;;;;;;;15.74;69.17;99468.79;223704;183;145889;-66
2023/05/02 19:31:59;;;;;;;5.60;3.90;;;;;;;15.74;68.15;99474.16;223753;182;138414;-66
2023/05/02 19:37:03;;;;;;;6.10;4.60;;;;;;;15.71;67.76;99480.70;223695;183;138178;-66
2023/05/02 19:42:06;;;;;;;5.10;3.80;;;;;;;15.62;67.45;99491.91;223750;183;145676;-65
2023/05/02 19:47:09;;;;;;;6.20;4.00;;;;;;;15.58;66.95;99501.14;223727;182;139309;-66
2023/05/02 19:52:12;;;;;;;8.20;4.60;;;;;;;15.57;67.00;99511.73;223714;182;136829;-62
2023/05/02 19:57:16;;;;;;;7.10;5.00;;;;;;;15.52;67.41;99521.11;223774;182;147946;-63
2023/05/02 20:02:20;;;;;;;8.90;4.70;;;;;;;15.46;67.72;99527.45;223721;183;138881;-64
2023/05/02 20:07:23;;;;;;;9.50;4.60;;;;;;;15.47;67.81;99528.27;223757;182;137752;-64
2023/05/02 20:12:26;;;;;;;6.40;4.10;;;;;;;15.42;67.72;99531.64;223751;182;146961;-65
2023/05/02 20:25:33;;;;;;;7.70;4.50;;;;;;;15.40;67.35;99541.63;221240;189;676254;-65
2023/05/02 20:30:37;;;;;;;7.20;4.90;;;;;;;15.28;67.31;99545.19;223322;186;135960;-68
2023/05/02 20:35:41;;;;;;;6.60;4.50;;;;;;;15.25;67.56;99549.55;223278;187;143912;-68
2023/05/02 20:40:44;;;;;;;6.60;4.50;;;;;;;15.21;67.80;99551.12;223762;182;138890;-63
2023/05/02 20:45:47;;;;;;;5.90;4.10;;;;;;;15.14;68.03;99545.69;223812;181;137042;-66
2023/05/02 20:50:53;;;;;;;6.10;4.00;;;;;;;15.06;68.23;99549.27;223728;182;143988;-67
2023/05/02 20:55:56;;;;;;;7.20;4.30;;;;;;;15.07;68.41;99556.55;223957;182;138862;-64
2023/05/02 21:00:59;;;;;;;9.80;4.60;;;;;;;15.09;68.43;99565.52;223702;182;137574;-64
2023/05/02 21:06:03;;;;;;;5.60;4.20;;;;;;;15.16;68.26;99577.02;223817;182;143540;-67
2023/05/02 21:11:13;;;;;;;8.40;4.20;;;;;;;15.16;67.78;99583.78;223747;181;139583;-64
2023/05/02 21:16:17;;;;;;;7.30;4.80;;;;;;;15.11;67.87;99587.73;223782;181;136390;-64
2023/05/02 21:21:21;;;;;;;8.40;4.70;;;;;;;15.04;68.28;99588.06;223774;181;145603;-65
2023/05/02 21:26:25;;;;;;;6.60;4.10;;;;;;;14.98;68.41;99590.24;223740;182;138694;-65
2023/05/02 21:31:28;;;;;;;8.40;4.90;;;;;;;14.93;68.57;99585.93;223806;182;139395;-64
2023/05/02 21:36:31;;;;;;;7.70;5.10;;;;;;;14.95;68.67;99596.21;223651;182;145351;-66
2023/05/02 21:41:35;;;;;;;8.70;5.60;;;;;;;14.96;68.74;99603.96;223738;182;138939;-67
2023/05/02 21:46:39;;;;;;;7.50;5.50;;;;;;;14.97;69.00;99608.05;223763;183;136223;-66
2023/05/02 21:51:42;;;;;;;9.30;6.40;;;;;;;14.92;69.20;99608.00;223770;183;145779;-65
2023/05/02 21:56:45;;;;;;;9.20;7.20;;;;;;;14.86;69.39;99602.90;223782;183;138447;-63
2023/05/02 22:01:49;;;;;;;9.60;6.50;;;;;;;14.79;69.66;99606.79;223745;182;136751;-67
2023/05/02 22:06:52;;;;;;;13.90;6.30;;;;;;;14.76;69.81;99608.25;223708;182;146383;-66
2023/05/02 22:11:56;;;;;;;10.00;7.40;;;;;;;14.78;69.93;99606.54;223815;182;138230;-64
2023/05/02 22:17:03;;;;;;;9.30;6.60;;;;;;;14.79;69.81;99608.58;223782;182;137099;-64
2023/05/02 22:22:06;;;;;;;11.20;6.70;;;;;;;14.86;69.51;99619.35;223788;182;145414;-65
2023/05/02 22:27:09;;;;;;;10.60;7.10;;;;;;;14.88;69.38;99630.45;223716;182;138676;-66
2023/05/02 22:32:12;;;;;;;12.00;7.40;;;;;;;14.87;69.26;99634.66;223670;182;137572;-66
2023/05/02 22:37:16;;;;;;;10.90;7.60;;;;;;;14.82;69.17;99637.46;223784;182;145297;-64
2023/05/02 22:42:19;;;;;;;10.50;7.50;;;;;;;14.74;69.26;99642.14;223834;182;141005;-66
2023/05/02 22:47:22;;;;;;;11.10;7.30;;;;;;;14.68;69.69;99647.60;223788;182;137364;-64
2023/05/02 22:52:28;;;;;;;10.20;8.10;;;;;;;14.71;69.95;99650.77;223759;182;146035;-65
2023/05/02 22:57:31;;;;;;;13.70;8.10;;;;;;;14.77;69.91;99656.98;223722;182;138727;-66
2023/05/02 23:02:35;;;;;;;11.80;8.70;;;;;;;14.74;69.84;99661.45;223725;182;137213;-65
2023/05/02 23:07:39;;;;;;;12.30;8.90;;;;;;;14.77;69.93;99661.95;223854;182;145617;-64
2023/05/02 23:12:42;;;;;;;12.50;9.30;;;;;;;14.68;70.01;99661.13;223726;182;138688;-64
2023/05/02 23:17:45;;;;;;;14.30;9.40;;;;;;;14.61;70.18;99655.17;223786;181;136805;-65
2023/05/02 23:25:29;;;;;;;17.10;10.40;;;;;;;14.59;70.50;99655.91;220534;193;665767;-65
2023/05/02 23:30:32;;;;;;;15.30;9.30;;;;;;;14.59;70.51;99650.16;223569;185;137101;-66
2023/05/02 23:35:35;;;;;;;14.10;9.00;;;;;;;14.56;70.31;99654.27;223609;184;143586;-63
2023/05/02 23:40:38;;;;;;;14.00;9.40;;;;;;;14.49;70.50;99656.92;223733;183;138468;-62
2023/05/02 23:45:41;;;;;;;13.40;9.50;;;;;;;14.43;70.65;99661.73;223666;183;136300;-64
2023/05/02 23:50:45;;;;;;;14.30;9.40;;;;;;;14.38;70.75;99661.73;223699;183;143505;-69
2023/05/02 23:55:48;;;;;;;11.50;8.80;;;;;;;14.39;70.78;99654.86;223717;183;138384;-67
